sensor_id;sensor_type;location;lat;lon;timestamp;pressure;altitude;pressure_sealevel;temperature;humidity
32083;BME280;18597;48.328;7.932;2023-06-10T00:01:45;98946.34;;;17.12;91.48
32083;BME280;18597;48.328;7.932;2023-06-10T00:04:15;98950.47;;;17.08;91.92
32083;BME280;18597;48.328;7.932;2023-06-10T00:06:43;98950.63;;;17.07;92.54
32083;BME280;18597;48.328;7.932;2023-06-10T00:09:10;98957.25;;;17.04;92.59
32083;BME280;18597;48.328;7.932;2023-06-10T00:11:37;98946.38;;;16.98;92.84
32083;BME280;18597;48.328;7.932;2023-06-10T00:14:03;98954.94;;;17.01;93.60
32083;BME280;18597;48.328;7.932;2023-06-10T00:16:29;98957.91;;;16.91;94.12
32083;BME280;18597;48.328;7.932;2023-06-10T00:18:56;98961.25;;;17.08;95.21
32083;BME280;18597;48.328;7.932;2023-06-10T00:21:28;98959.88;;;16.98;95.87
32083;BME280;18597;48.328;7.932;2023-06-10T00:23:54;98960.63;;;16.91;96.63
32083;BME280;18597;48.328;7.932;2023-06-10T00:26:22;98967.06;;;16.76;97.52
32083;BME280;18597;48.328;7.932;2023-06-10T00:28:49;98965.25;;;16.68;97.35
32083;BME280;18597;48.328;7.932;2023-06-10T00:31:15;98960.53;;;16.55;98.26
32083;BME280;18597;48.328;7.932;2023-06-10T00:33:41;98972.25;;;16.48;98.52
32083;BME280;18597;48.328;7.932;2023-06-10T00:36:07;98968.31;;;16.35;99.63
32083;BME280;18597;48.328;7.932;2023-06-10T00:38:33;98961.78;;;16.30;100.00
32083;BME280;18597;48.328;7.932;2023-06-10T00:41:00;98959.84;;;16.38;100.00
32083;BME280;18597;48.328;7.932;2023-06-10T00:43:25;98964.69;;;16.28;100.00
32083;BME280;18597;48.328;7.932;2023-06-10T00:45:52;98963.69;;;16.59;100.00
32083;BME280;18597;48.328;7.932;2023-06-10T00:48:18;98956.06;;;16.33;100.00
32083;BME280;18597;48.328;7.932;2023-06-10T00:50:46;98962.19;;;16.27;100.00
32083;BME280;18597;48.328;7.932;2023-06-10T00:53:12;98966.53;;;16.13;100.00
32083;BME280;18597;48.328;7.932;2023-06-10T00:55:57;98968.44;;;16.04;100.00
32083;BME280;18597;48.328;7.932;2023-06-10T00:58:24;98970.50;;;16.02;100.00
32083;BME280;18597;48.328;7.932;2023-06-10T01:00:51;98969.41;;;16.12;100.00
32083;BME280;18597;48.328;7.932;2023-06-10T01:03:17;98966.94;;;16.02;100.00
32083;BME280;18597;48.328;7.932;2023-06-10T01:05:47;98967.81;;;16.02;100.00
32083;BME280;18597;48.328;7.932;2023-06-10T01:08:31;98975.28;;;15.92;100.00
32083;BME280;18597;48.328;7.932;2023-06-10T01:11:01;98969.78;;;15.86;100.00
32083;BME280;18597;48.328;7.932;2023-06-10T01:13:29;98977.69;;;15.87;100.00
32083;BME280;18597;48.328;7.932;2023-06-10T01:15:58;98980.91;;;16.05;100.00
32083;BME280;18597;48.328;7.932;2023-06-10T01:18:30;98984.13;;;16.01;100.00
32083;BME280;18597;48.328;7.932;2023-06-10T01:20:56;98979.00;;;15.68;100.00
32083;BME280;18597;48.328;7.932;2023-06-10T01:23:23;98981.69;;;15.68;100.00
32083;BME280;18597;48.328;7.932;2023-06-10T01:25:56;98979.81;;;15.46;100.00
32083;BME280;18597;48.328;7.932;2023-06-10T01:28:51;98987.56;;;15.41;100.00
32083;BME280;18597;48.328;7.932;2023-06-10T01:34:18;98981.13;;;15.50;100.00
32083;BME280;18597;48.328;7.932;2023-06-10T01:36:48;98983.94;;;15.88;100.00
32083;BME280;18597;48.328;7.932;2023-06-10T01:39:16;98990.31;;;15.64;100.00
32083;BME280;18597;48.328;7.932;2023-06-10T01:41:43;98991.53;;;15.53;100.00
32083;BME280;18597;48.328;7.932;2023-06-10T01:44:10;98997.28;;;15.50;100.00
32083;BME280;18597;48.328;7.932;2023-06-10T01:46:36;99000.13;;;15.48;100.00
32083;BME280;18597;48.328;7.932;2023-06-10T01:49:02;99002.75;;;15.34;100.00
32083;BME280;18597;48.328;7.932;2023-06-10T01:51:28;98995.28;;;15.21;100.00
32083;BME280;18597;48.328;7.932;2023-06-10T01:53:55;99009.75;;;15.20;100.00
32083;BME280;18597;48.328;7.932;2023-06-10T01:56:20;99007.38;;;15.17;100.00
32083;BME280;18597;48.328;7.932;2023-06-10T01:58:47;99007.19;;;15.26;100.00
32083;BME280;18597;48.328;7.932;2023-06-10T02:01:13;99008.59;;;15.14;100.00
32083;BME280;18597;48.328;7.932;2023-06-10T02:03:39;99021.56;;;15.03;100.00
32083;BME280;18597;48.328;7.932;2023-06-10T02:06:05;99014.88;;;14.98;100.00
32083;BME280;18597;48.328;7.932;2023-06-10T02:08:31;99015.38;;;14.94;100.00
32083;BME280;18597;48.328;7.932;2023-06-10T02:10:57;99019.13;;;14.85;100.00
32083;BME280;18597;48.328;7.932;2023-06-10T02:13:23;99014.44;;;14.79;100.00
32083;BME280;18597;48.328;7.932;2023-06-10T02:15:48;99020.81;;;14.78;100.00
32083;BME280;18597;48.328;7.932;2023-06-10T02:18:14;99020.81;;;14.78;100.00
32083;BME280;18597;48.328;7.932;2023-06-10T02:20:40;99020.78;;;14.86;100.00
32083;BME280;18597;48.328;7.932;2023-06-10T02:23:06;99024.97;;;14.88;100.00
32083;BME280;18597;48.328;7.932;2023-06-10T02:25:32;99026.56;;;14.75;100.00
32083;BME280;18597;48.328;7.932;2023-06-10T02:27:57;99027.56;;;14.74;100.00
32083;BME280;18597;48.328;7.932;2023-06-10T02:30:23;99031.75;;;14.76;100.00
32083;BME280;18597;48.328;7.932;2023-06-10T02:32:49;99026.84;;;14.80;100.00
32083;BME280;18597;48.328;7.932;2023-06-10T02:35:17;99027.56;;;14.82;100.00
32083;BME280;18597;48.328;7.932;2023-06-10T02:37:43;99036.31;;;14.76;100.00
32083;BME280;18597;48.328;7.932;2023-06-10T02:40:11;99033.47;;;14.69;100.00
32083;BME280;18597;48.328;7.932;2023-06-10T02:42:37;99043.03;;;14.63;100.00
32083;BME280;18597;48.328;7.932;2023-06-10T02:45:03;99037.19;;;14.52;100.00
32083;BME280;18597;48.328;7.932;2023-06-10T02:47:30;99032.81;;;14.59;100.00
32083;BME280;18597;48.328;7.932;2023-06-10T02:49:55;99037.78;;;14.86;100.00
32083;BME280;18597;48.328;7.932;2023-06-10T02:52:21;99036.56;;;14.97;100.00
32083;BME280;18597;48.328;7.932;2023-06-10T02:54:48;99041.00;;;14.82;100.00
32083;BME280;18597;48.328;7.932;2023-06-10T02:57:14;99039.13;;;14.90;100.00
32083;BME280;18597;48.328;7.932;2023-06-10T02:59:40;99035.97;;;14.70;100.00
32083;BME280;18597;48.328;7.932;2023-06-10T03:02:06;99031.13;;;14.58;100.00
32083;BME280;18597;48.328;7.932;2023-06-10T03:04:33;99036.03;;;14.46;100.00
32083;BME280;18597;48.328;7.932;2023-06-10T03:06:58;99037.69;;;14.47;100.00
32083;BME280;18597;48.328;7.932;2023-06-10T03:09:26;99039.84;;;14.68;100.00
32083;BME280;18597;48.328;7.932;2023-06-10T03:11:51;99039.47;;;14.79;100.00
32083;BME280;18597;48.328;7.932;2023-06-10T03:14:17;99039.66;;;14.78;100.00
32083;BME280;18597;48.328;7.932;2023-06-10T03:16:43;99041.63;;;14.92;100.00
32083;BME280;18597;48.328;7.932;2023-06-10T03:19:11;99039.59;;;14.94;100.00
32083;BME280;18597;48.328;7.932;2023-06-10T03:21:36;99040.97;;;14.90;100.00
32083;BME280;18597;48.328;7.932;2023-06-10T03:24:03;99045.69;;;14.80;100.00
32083;BME280;18597;48.328;7.932;2023-06-10T03:26:29;99048.06;;;14.75;100.00
32083;BME280;18597;48.328;7.932;2023-06-10T03:28:55;99056.47;;;14.71;100.00
32083;BME280;18597;48.328;7.932;2023-06-10T03:31:21;99057.00;;;14.51;100.00
32083;BME280;18597;48.328;7.932;2023-06-10T03:33:46;99059.69;;;14.51;100.00
32083;BME280;18597;48.328;7.932;2023-06-10T03:36:12;99060.69;;;14.74;100.00
32083;BME280;18597;48.328;7.932;2023-06-10T03:38:38;99066.34;;;14.79;100.00
32083;BME280;18597;48.328;7.932;2023-06-10T03:41:04;99064.69;;;14.70;100.00
32083;BME280;18597;48.328;7.932;2023-06-10T03:43:29;99073.13;;;14.51;100.00
32083;BME280;18597;48.328;7.932;2023-06-10T03:45:57;99068.44;;;14.53;100.00
32083;BME280;18597;48.328;7.932;2023-06-10T03:48:22;99070.91;;;14.70;100.00
32083;BME280;18597;48.328;7.932;2023-06-10T03:50:48;99071.72;;;14.79;100.00
32083;BME280;18597;48.328;7.932;2023-06-10T03:53:16;99068.22;;;14.79;100.00
32083;BME280;18597;48.328;7.932;2023-06-10T03:55:42;99075.22;;;14.96;100.00
32083;BME280;18597;48.328;7.932;2023-06-10T03:58:08;99082.66;;;14.78;100.00
32083;BME280;18597;48.328;7.932;2023-06-10T04:00:34;99077.56;;;15.07;100.00
32083;BME280;18597;48.328;7.932;2023-06-10T04:03:08;99087.66;;;15.05;100.00
32083;BME280;18597;48.328;7.932;2023-06-10T04:05:35;99081.44;;;15.05;100.00
32083;BME280;18597;48.328;7.932;2023-06-10T04:08:00;99087.81;;;14.95;100.00
32083;BME280;18597;48.328;7.932;2023-06-10T04:10:27;99093.47;;;15.17;100.00
32083;BME280;18597;48.328;7.932;2023-06-10T04:12:53;99091.78;;;15.24;100.00
32083;BME280;18597;48.328;7.932;2023-06-10T04:15:19;99079.84;;;15.18;100.00
32083;BME280;18597;48.328;7.932;2023-06-10T04:17:45;99092.16;;;15.13;100.00
32083;BME280;18597;48.328;7.932;2023-06-10T04:20:11;99087.94;;;15.10;100.00
32083;BME280;18597;48.328;7.932;2023-06-10T04:22:37;99089.97;;;15.08;100.00
32083;BME280;18597;48.328;7.932;2023-06-10T04:25:03;99095.34;;;15.16;100.00
32083;BME280;18597;48.328;7.932;2023-06-10T04:27:29;99093.66;;;15.15;100.00
32083;BME280;18597;48.328;7.932;2023-06-10T04:29:55;99098.50;;;15.28;100.00
32083;BME280;18597;48.328;7.932;2023-06-10T04:32:21;99095.44;;;15.31;100.00
32083;BME280;18597;48.328;7.932;2023-06-10T04:34:48;99097.22;;;15.47;100.00
32083;BME280;18597;48.328;7.932;2023-06-10T04:37:14;99095.25;;;15.80;100.00
32083;BME280;18597;48.328;7.932;2023-06-10T04:39:40;99102.34;;;17.02;98.35
32083;BME280;18597;48.328;7.932;2023-06-10T04:42:07;99103.72;;;19.07;79.58
32083;BME280;18597;48.328;7.932;2023-06-10T04:44:33;99101.78;;;20.71;64.47
32083;BME280;18597;48.328;7.932;2023-06-10T04:46:58;99093.81;;;22.12;56.69
32083;BME280;18597;48.328;7.932;2023-06-10T04:49:24;99103.41;;;23.94;49.20
32083;BME280;18597;48.328;7.932;2023-06-10T04:51:50;99103.78;;;25.52;43.66
32083;BME280;18597;48.328;7.932;2023-06-10T04:54:17;99102.50;;;26.23;41.74
32083;BME280;18597;48.328;7.932;2023-06-10T04:56:43;99102.56;;;26.40;41.05
32083;BME280;18597;48.328;7.932;2023-06-10T04:59:08;99105.13;;;26.97;39.48
32083;BME280;18597;48.328;7.932;2023-06-10T05:01:34;99106.94;;;27.25;38.99
32083;BME280;18597;48.328;7.932;2023-06-10T05:04:00;99093.16;;;27.03;39.07
32083;BME280;18597;48.328;7.932;2023-06-10T05:06:26;99103.47;;;25.25;42.16
32083;BME280;18597;48.328;7.932;2023-06-10T05:08:52;99099.97;;;24.71;44.22
32083;BME280;18597;48.328;7.932;2023-06-10T05:11:17;99103.00;;;25.04;43.73
32083;BME280;18597;48.328;7.932;2023-06-10T05:13:43;99095.75;;;25.85;41.99
32083;BME280;18597;48.328;7.932;2023-06-10T05:16:09;99092.19;;;26.92;39.48
32083;BME280;18597;48.328;7.932;2023-06-10T05:18:35;99093.53;;;28.38;36.15
32083;BME280;18597;48.328;7.932;2023-06-10T05:21:02;99097.84;;;29.30;35.52
32083;BME280;18597;48.328;7.932;2023-06-10T05:23:28;99090.31;;;30.97;32.10
32083;BME280;18597;48.328;7.932;2023-06-10T05:25:54;99099.06;;;31.49;31.01
32083;BME280;18597;48.328;7.932;2023-06-10T05:28:20;99092.66;;;31.64;30.77
32083;BME280;18597;48.328;7.932;2023-06-10T05:30:46;99095.53;;;31.13;31.36
32083;BME280;18597;48.328;7.932;2023-06-10T05:33:12;99095.22;;;31.20;31.03
32083;BME280;18597;48.328;7.932;2023-06-10T05:35:37;99098.09;;;31.90;29.85
32083;BME280;18597;48.328;7.932;2023-06-10T05:38:04;99092.75;;;33.16;28.82
32083;BME280;18597;48.328;7.932;2023-06-10T05:40:30;99090.56;;;32.84;28.77
32083;BME280;18597;48.328;7.932;2023-06-10T05:42:56;99094.97;;;32.90;28.58
32083;BME280;18597;48.328;7.932;2023-06-10T05:45:22;99090.31;;;33.86;27.80
32083;BME280;18597;48.328;7.932;2023-06-10T05:47:48;99089.09;;;35.33;25.94
32083;BME280;18597;48.328;7.932;2023-06-10T05:50:15;99090.38;;;36.32;24.71
32083;BME280;18597;48.328;7.932;2023-06-10T05:52:40;99080.69;;;38.07;23.01
32083;BME280;18597;48.328;7.932;2023-06-10T05:55:07;99083.22;;;39.33;21.65
32083;BME280;18597;48.328;7.932;2023-06-10T05:57:33;99084.59;;;40.16;20.92
32083;BME280;18597;48.328;7.932;2023-06-10T05:59:59;99077.34;;;41.23;19.69
32083;BME280;18597;48.328;7.932;2023-06-10T06:02:25;99075.97;;;42.15;18.67
32083;BME280;18597;48.328;7.932;2023-06-10T06:04:51;99071.59;;;43.13;17.88
32083;BME280;18597;48.328;7.932;2023-06-10T06:07:17;99071.19;;;43.94;17.07
32083;BME280;18597;48.328;7.932;2023-06-10T06:09:42;99078.38;;;44.65;16.53
32083;BME280;18597;48.328;7.932;2023-06-10T06:12:08;99066.78;;;45.32;15.95
32083;BME280;18597;48.328;7.932;2023-06-10T06:14:38;99069.28;;;45.86;15.73
32083;BME280;18597;48.328;7.932;2023-06-10T06:17:06;99058.69;;;46.36;15.18
32083;BME280;18597;48.328;7.932;2023-06-10T06:19:33;99053.41;;;46.65;14.71
32083;BME280;18597;48.328;7.932;2023-06-10T06:21:59;99053.69;;;46.86;14.96
32083;BME280;18597;48.328;7.932;2023-06-10T06:24:24;99057.81;;;46.99;14.08
32083;BME280;18597;48.328;7.932;2023-06-10T06:26:50;99056.09;;;47.28;14.04
32083;BME280;18597;48.328;7.932;2023-06-10T06:29:16;99060.63;;;47.92;13.83
32083;BME280;18597;48.328;7.932;2023-06-10T06:31:42;99047.06;;;48.29;13.46
32083;BME280;18597;48.328;7.932;2023-06-10T06:34:08;99051.75;;;48.77;13.42
32083;BME280;18597;48.328;7.932;2023-06-10T06:36:34;99053.84;;;49.08;13.05
32083;BME280;18597;48.328;7.932;2023-06-10T06:38:59;99055.09;;;49.43;12.79
32083;BME280;18597;48.328;7.932;2023-06-10T06:41:27;99046.13;;;49.73;12.87
32083;BME280;18597;48.328;7.932;2023-06-10T06:43:54;99050.94;;;50.08;12.72
32083;BME280;18597;48.328;7.932;2023-06-10T06:46:20;99044.63;;;50.56;12.59
32083;BME280;18597;48.328;7.932;2023-06-10T06:48:48;99045.69;;;50.91;11.89
32083;BME280;18597;48.328;7.932;2023-06-10T06:51:14;99042.31;;;51.10;11.78
32083;BME280;18597;48.328;7.932;2023-06-10T06:56:26;99049.03;;;51.34;11.50
32083;BME280;18597;48.328;7.932;2023-06-10T06:58:53;99043.78;;;51.74;11.44
32083;BME280;18597;48.328;7.932;2023-06-10T07:01:19;99045.78;;;51.32;11.58
32083;BME280;18597;48.328;7.932;2023-06-10T07:03:45;99046.94;;;51.38;11.20
32083;BME280;18597;48.328;7.932;2023-06-10T07:06:13;99045.38;;;51.33;11.50
32083;BME280;18597;48.328;7.932;2023-06-10T07:08:39;99041.66;;;51.37;11.60
32083;BME280;18597;48.328;7.932;2023-06-10T07:11:05;99050.41;;;51.64;11.27
32083;BME280;18597;48.328;7.932;2023-06-10T07:13:31;99049.47;;;52.15;10.86
32083;BME280;18597;48.328;7.932;2023-06-10T07:15:56;99043.09;;;52.65;10.83
32083;BME280;18597;48.328;7.932;2023-06-10T07:18:22;99051.66;;;52.65;10.98
32083;BME280;18597;48.328;7.932;2023-06-10T07:20:48;99041.56;;;52.87;10.47
32083;BME280;18597;48.328;7.932;2023-06-10T07:23:14;99048.81;;;53.19;10.39
32083;BME280;18597;48.328;7.932;2023-06-10T07:25:41;99047.66;;;53.40;9.88
32083;BME280;18597;48.328;7.932;2023-06-10T07:28:07;99042.50;;;53.78;10.11
32083;BME280;18597;48.328;7.932;2023-06-10T07:30:33;99041.25;;;53.79;9.91
32083;BME280;18597;48.328;7.932;2023-06-10T07:32:59;99047.81;;;53.99;9.78
32083;BME280;18597;48.328;7.932;2023-06-10T07:35:25;99043.13;;;54.09;9.73
32083;BME280;18597;48.328;7.932;2023-06-10T07:37:50;99045.00;;;53.96;9.61
32083;BME280;18597;48.328;7.932;2023-06-10T07:40:16;99042.44;;;53.58;10.08
32083;BME280;18597;48.328;7.932;2023-06-10T07:42:42;99033.94;;;52.81;10.07
32083;BME280;18597;48.328;7.932;2023-06-10T07:45:09;99033.56;;;52.75;10.56
32083;BME280;18597;48.328;7.932;2023-06-10T07:47:34;99034.41;;;52.45;10.29
32083;BME280;18597;48.328;7.932;2023-06-10T07:50:00;99036.75;;;52.54;10.44
32083;BME280;18597;48.328;7.932;2023-06-10T07:52:26;99037.66;;;52.78;10.75
32083;BME280;18597;48.328;7.932;2023-06-10T07:54:54;99034.69;;;52.85;10.23
32083;BME280;18597;48.328;7.932;2023-06-10T07:57:20;99039.91;;;53.17;10.29
32083;BME280;18597;48.328;7.932;2023-06-10T07:59:45;99030.97;;;53.15;10.19
32083;BME280;18597;48.328;7.932;2023-06-10T08:02:11;99035.88;;;52.87;10.58
32083;BME280;18597;48.328;7.932;2023-06-10T08:04:37;99043.47;;;52.36;10.76
32083;BME280;18597;48.328;7.932;2023-06-10T08:07:03;99037.06;;;52.29;10.43
32083;BME280;18597;48.328;7.932;2023-06-10T08:09:29;99027.25;;;51.13;11.70
32083;BME280;18597;48.328;7.932;2023-06-10T08:11:55;99026.16;;;51.48;11.24
32083;BME280;18597;48.328;7.932;2023-06-10T08:14:21;99030.34;;;51.74;10.94
32083;BME280;18597;48.328;7.932;2023-06-10T08:16:47;99018.22;;;52.04;10.80
32083;BME280;18597;48.328;7.932;2023-06-10T08:19:13;99025.81;;;52.18;11.23
32083;BME280;18597;48.328;7.932;2023-06-10T08:21:39;99027.44;;;52.50;10.86
32083;BME280;18597;48.328;7.932;2023-06-10T08:24:07;99029.41;;;52.22;10.99
32083;BME280;18597;48.328;7.932;2023-06-10T08:26:32;99019.78;;;52.12;11.02
32083;BME280;18597;48.328;7.932;2023-06-10T08:28:58;99022.63;;;52.12;11.19
32083;BME280;18597;48.328;7.932;2023-06-10T08:31:24;99011.78;;;52.00;11.00
32083;BME280;18597;48.328;7.932;2023-06-10T08:33:50;99017.78;;;52.06;10.85
32083;BME280;18597;48.328;7.932;2023-06-10T08:36:16;99009.97;;;52.13;10.89
32083;BME280;18597;48.328;7.932;2023-06-10T08:38:41;99017.22;;;52.52;10.79
32083;BME280;18597;48.328;7.932;2023-06-10T08:41:09;99017.75;;;52.09;10.82
32083;BME280;18597;48.328;7.932;2023-06-10T08:43:58;99013.75;;;52.03;10.72
32083;BME280;18597;48.328;7.932;2023-06-10T08:46:25;99007.22;;;52.37;10.96
32083;BME280;18597;48.328;7.932;2023-06-10T08:48:55;99011.13;;;51.85;11.03
32083;BME280;18597;48.328;7.932;2023-06-10T08:51:23;99005.81;;;51.50;10.74
32083;BME280;18597;48.328;7.932;2023-06-10T08:54:01;99014.56;;;50.62;11.53
32083;BME280;18597;48.328;7.932;2023-06-10T08:56:28;99005.41;;;50.26;12.05
32083;BME280;18597;48.328;7.932;2023-06-10T08:58:56;99005.38;;;50.30;11.73
32083;BME280;18597;48.328;7.932;2023-06-10T09:01:25;99008.44;;;49.01;13.02
32083;BME280;18597;48.328;7.932;2023-06-10T09:03:51;98999.03;;;48.54;13.32
32083;BME280;18597;48.328;7.932;2023-06-10T09:06:18;99003.06;;;48.46;13.46
32083;BME280;18597;48.328;7.932;2023-06-10T09:08:44;98998.50;;;48.27;13.32
32083;BME280;18597;48.328;7.932;2023-06-10T09:11:10;98998.47;;;48.17;13.82
32083;BME280;18597;48.328;7.932;2023-06-10T09:13:36;98985.94;;;47.52;13.95
32083;BME280;18597;48.328;7.932;2023-06-10T09:16:01;98985.69;;;47.20;14.35
32083;BME280;18597;48.328;7.932;2023-06-10T09:18:28;98986.44;;;46.69;14.50
32083;BME280;18597;48.328;7.932;2023-06-10T09:20:55;98993.41;;;44.82;16.02
32083;BME280;18597;48.328;7.932;2023-06-10T09:23:21;98979.88;;;42.05;18.21
32083;BME280;18597;48.328;7.932;2023-06-10T09:25:57;98987.81;;;39.44;20.89
32083;BME280;18597;48.328;7.932;2023-06-10T09:28:23;98995.16;;;37.59;22.64
32083;BME280;18597;48.328;7.932;2023-06-10T09:30:50;98989.00;;;36.60;24.14
32083;BME280;18597;48.328;7.932;2023-06-10T09:33:26;98991.25;;;35.91;24.74
32083;BME280;18597;48.328;7.932;2023-06-10T09:35:52;98992.31;;;35.26;25.77
32083;BME280;18597;48.328;7.932;2023-06-10T09:38:21;98987.69;;;34.94;26.03
32083;BME280;18597;48.328;7.932;2023-06-10T09:40:52;98986.88;;;34.29;27.08
32083;BME280;18597;48.328;7.932;2023-06-10T09:43:19;98993.72;;;33.99;27.03
32083;BME280;18597;48.328;7.932;2023-06-10T09:45:50;98990.13;;;34.17;27.78
32083;BME280;18597;48.328;7.932;2023-06-10T09:48:18;98979.72;;;34.09;28.20
32083;BME280;18597;48.328;7.932;2023-06-10T09:50:45;98980.56;;;34.09;28.78
32083;BME280;18597;48.328;7.932;2023-06-10T09:53:12;98989.31;;;33.98;28.58
32083;BME280;18597;48.328;7.932;2023-06-10T09:55:39;98993.47;;;34.14;27.53
32083;BME280;18597;48.328;7.932;2023-06-10T09:58:05;98990.56;;;34.24;28.28
32083;BME280;18597;48.328;7.932;2023-06-10T10:00:33;98993.69;;;34.36;27.47
32083;BME280;18597;48.328;7.932;2023-06-10T10:03:00;98997.34;;;34.51;27.71
32083;BME280;18597;48.328;7.932;2023-06-10T10:05:27;98996.25;;;34.33;27.97
32083;BME280;18597;48.328;7.932;2023-06-10T10:07:53;99000.34;;;34.54;27.59
32083;BME280;18597;48.328;7.932;2023-06-10T10:10:22;98989.97;;;34.60;27.80
32083;BME280;18597;48.328;7.932;2023-06-10T10:12:50;98993.44;;;34.84;27.35
32083;BME280;18597;48.328;7.932;2023-06-10T10:15:17;98994.75;;;34.87;27.18
32083;BME280;18597;48.328;7.932;2023-06-10T10:20:26;98994.88;;;34.95;26.99
32083;BME280;18597;48.328;7.932;2023-06-10T10:22:57;98995.81;;;35.04;26.87
32083;BME280;18597;48.328;7.932;2023-06-10T10:25:27;98991.28;;;34.95;26.45
32083;BME280;18597;48.328;7.932;2023-06-10T10:28:11;98984.09;;;34.94;26.82
32083;BME280;18597;48.328;7.932;2023-06-10T10:30:43;98984.25;;;34.70;27.36
32083;BME280;18597;48.328;7.932;2023-06-10T10:33:31;98987.41;;;34.63;27.26
32083;BME280;18597;48.328;7.932;2023-06-10T10:35:59;98984.09;;;34.94;27.73
32083;BME280;18597;48.328;7.932;2023-06-10T10:38:26;98983.06;;;35.03;26.80
32083;BME280;18597;48.328;7.932;2023-06-10T10:40:53;98982.56;;;35.15;26.45
32083;BME280;18597;48.328;7.932;2023-06-10T10:43:21;98978.38;;;34.58;27.15
32083;BME280;18597;48.328;7.932;2023-06-10T10:45:59;98979.72;;;34.09;27.81
32083;BME280;18597;48.328;7.932;2023-06-10T10:48:27;98980.81;;;33.70;28.41
32083;BME280;18597;48.328;7.932;2023-06-10T10:50:57;98974.22;;;33.47;28.87
32083;BME280;18597;48.328;7.932;2023-06-10T10:53:24;98974.59;;;33.41;28.84
32083;BME280;18597;48.328;7.932;2023-06-10T10:56:08;98974.81;;;33.44;28.88
32083;BME280;18597;48.328;7.932;2023-06-10T10:58:37;98956.78;;;33.47;30.38
32083;BME280;18597;48.328;7.932;2023-06-10T11:01:13;98959.72;;;33.74;29.42
32083;BME280;18597;48.328;7.932;2023-06-10T11:03:44;98958.31;;;33.96;28.49
32083;BME280;18597;48.328;7.932;2023-06-10T11:06:14;98970.63;;;33.84;28.13
32083;BME280;18597;48.328;7.932;2023-06-10T11:11:26;98967.28;;;33.87;28.18
32083;BME280;18597;48.328;7.932;2023-06-10T11:14:08;98952.84;;;33.90;27.71
32083;BME280;18597;48.328;7.932;2023-06-10T11:16:40;98955.16;;;34.02;28.54
32083;BME280;18597;48.328;7.932;2023-06-10T11:19:08;98954.84;;;33.85;28.19
32083;BME280;18597;48.328;7.932;2023-06-10T11:21:58;98959.69;;;33.55;28.45
32083;BME280;18597;48.328;7.932;2023-06-10T11:24:25;98950.50;;;33.41;28.77
32083;BME280;18597;48.328;7.932;2023-06-10T11:26:52;98951.72;;;33.30;28.32
32083;BME280;18597;48.328;7.932;2023-06-10T11:29:17;98948.59;;;33.36;28.62
32083;BME280;18597;48.328;7.932;2023-06-10T11:31:49;98950.22;;;33.80;27.67
32083;BME280;18597;48.328;7.932;2023-06-10T11:34:22;98946.47;;;33.90;26.92
32083;BME280;18597;48.328;7.932;2023-06-10T11:36:49;98945.16;;;34.20;26.19
32083;BME280;18597;48.328;7.932;2023-06-10T11:39:15;98946.41;;;34.28;26.00
32083;BME280;18597;48.328;7.932;2023-06-10T11:41:43;98943.69;;;33.52;26.23
32083;BME280;18597;48.328;7.932;2023-06-10T11:44:11;98941.72;;;33.34;27.01
32083;BME280;18597;48.328;7.932;2023-06-10T11:46:37;98939.44;;;33.41;26.68
32083;BME280;18597;48.328;7.932;2023-06-10T11:49:05;98942.09;;;33.46;27.14
32083;BME280;18597;48.328;7.932;2023-06-10T11:51:35;98933.66;;;33.37;27.49
32083;BME280;18597;48.328;7.932;2023-06-10T11:54:02;98932.97;;;33.46;27.09
32083;BME280;18597;48.328;7.932;2023-06-10T11:56:30;98928.88;;;33.62;27.07
32083;BME280;18597;48.328;7.932;2023-06-10T11:59:00;98924.59;;;33.88;26.94
32083;BME280;18597;48.328;7.932;2023-06-10T12:01:31;98928.75;;;33.29;26.34
32083;BME280;18597;48.328;7.932;2023-06-10T12:04:06;98920.13;;;33.12;27.19
32083;BME280;18597;48.328;7.932;2023-06-10T12:06:46;98918.03;;;33.65;26.14
32083;BME280;18597;48.328;7.932;2023-06-10T12:09:27;98911.22;;;33.96;25.98
32083;BME280;18597;48.328;7.932;2023-06-10T12:12:01;98907.84;;;34.31;25.42
32083;BME280;18597;48.328;7.932;2023-06-10T12:14:56;98908.81;;;34.21;24.81
32083;BME280;18597;48.328;7.932;2023-06-10T12:17:36;98901.53;;;34.26;24.97
32083;BME280;18597;48.328;7.932;2023-06-10T12:20:07;98900.59;;;34.16;24.93
32083;BME280;18597;48.328;7.932;2023-06-10T12:22:41;98902.31;;;34.12;25.19
32083;BME280;18597;48.328;7.932;2023-06-10T12:25:09;98903.88;;;34.18;25.02
32083;BME280;18597;48.328;7.932;2023-06-10T12:27:35;98896.91;;;34.21;25.29
32083;BME280;18597;48.328;7.932;2023-06-10T12:30:04;98897.41;;;34.23;25.46
32083;BME280;18597;48.328;7.932;2023-06-10T12:32:42;98897.94;;;33.92;24.87
32083;BME280;18597;48.328;7.932;2023-06-10T12:35:10;98895.78;;;33.89;25.08
32083;BME280;18597;48.328;7.932;2023-06-10T12:37:39;98901.94;;;33.49;25.43
32083;BME280;18597;48.328;7.932;2023-06-10T12:40:06;98899.38;;;33.52;25.88
32083;BME280;18597;48.328;7.932;2023-06-10T12:42:36;98903.19;;;33.75;25.36
32083;BME280;18597;48.328;7.932;2023-06-10T12:45:03;98888.50;;;33.75;25.91
32083;BME280;18597;48.328;7.932;2023-06-10T12:47:31;98896.16;;;33.45;26.50
32083;BME280;18597;48.328;7.932;2023-06-10T12:49:59;98891.56;;;33.35;27.13
32083;BME280;18597;48.328;7.932;2023-06-10T12:52:25;98889.34;;;32.95;26.89
32083;BME280;18597;48.328;7.932;2023-06-10T12:54:51;98896.81;;;32.12;27.23
32083;BME280;18597;48.328;7.932;2023-06-10T12:57:18;98890.19;;;32.13;27.52
32083;BME280;18597;48.328;7.932;2023-06-10T12:59:43;98892.47;;;32.06;28.13
32083;BME280;18597;48.328;7.932;2023-06-10T13:02:16;98888.38;;;31.98;28.21
32083;BME280;18597;48.328;7.932;2023-06-10T13:04:46;98891.03;;;32.09;28.15
32083;BME280;18597;48.328;7.932;2023-06-10T13:07:12;98881.31;;;32.16;28.02
32083;BME280;18597;48.328;7.932;2023-06-10T13:09:38;98877.34;;;32.80;27.76
32083;BME280;18597;48.328;7.932;2023-06-10T13:12:04;98867.47;;;33.36;27.36